createdAt,value
2023-04-13T00:00:48.577Z,48.53
2023-04-13T00:03:18.088Z,48.24
2023-04-13T00:05:46.633Z,48.33
2023-04-13T00:08:13.920Z,48.16
2023-04-13T00:10:42.105Z,48.54
2023-04-13T00:13:09.975Z,48.28
2023-04-13T00:15:38.478Z,48.55
2023-04-13T00:18:07.254Z,48.40
2023-04-13T00:20:34.266Z,48.57
2023-04-13T00:23:01.611Z,48.25
2023-04-13T00:25:29.526Z,48.29
2023-04-13T00:27:56.537Z,48.60
2023-04-13T00:30:23.414Z,48.80
2023-04-13T00:32:50.581Z,48.41
2023-04-13T00:35:19.461Z,48.58
2023-04-13T00:37:48.563Z,48.60
2023-04-13T00:40:17.056Z,48.45
2023-04-13T00:42:45.283Z,48.47
2023-04-13T00:45:13.943Z,48.82
2023-04-13T00:47:42.444Z,48.72
2023-04-13T00:50:09.611Z,48.68
2023-04-13T00:52:38.756Z,48.44
2023-04-13T00:55:06.581Z,48.67
2023-04-13T00:57:34.585Z,48.72
2023-04-13T01:00:01.879Z,48.82
2023-04-13T01:02:28.905Z,48.46
2023-04-13T01:04:56.574Z,48.67
2023-04-13T01:07:26.861Z,48.60
2023-04-13T01:09:56.909Z,48.43
2023-04-13T01:12:26.832Z,48.77
2023-04-13T01:14:59.237Z,48.71
2023-04-13T01:17:29.288Z,48.58
2023-04-13T01:19:59.690Z,48.51
2023-04-13T01:22:29.079Z,48.31
2023-04-13T01:24:58.997Z,48.54
2023-04-13T01:27:28.955Z,48.56
2023-04-13T01:29:58.501Z,48.65
2023-04-13T01:32:26.110Z,48.20
2023-04-13T01:34:53.020Z,48.30
2023-04-13T01:37:20.078Z,48.34
2023-04-13T01:39:49.362Z,48.34
2023-04-13T01:42:16.689Z,48.38
2023-04-13T01:44:44.122Z,48.21
2023-04-13T01:47:20.720Z,48.35
2023-04-13T01:49:52.815Z,48.30
2023-04-13T01:52:21.251Z,48.15
2023-04-13T01:54:53.765Z,48.18
2023-04-13T01:57:22.670Z,48.20
2023-04-13T01:59:49.452Z,48.34
2023-04-13T02:02:17.894Z,48.41
2023-04-13T02:04:44.839Z,47.96
2023-04-13T02:07:12.776Z,47.99
2023-04-13T02:09:39.698Z,48.06
2023-04-13T02:12:06.728Z,48.32
2023-04-13T02:14:33.901Z,48.18
2023-04-13T02:17:00.858Z,48.27
2023-04-13T02:19:27.762Z,48.19
2023-04-13T02:22:00.089Z,48.18
2023-04-13T02:24:27.007Z,48.18
2023-04-13T02:26:53.919Z,47.83
2023-04-13T02:29:20.800Z,48.14
2023-04-13T02:31:47.778Z,48.15
2023-04-13T02:34:14.772Z,48.11
2023-04-13T02:36:42.529Z,47.84
2023-04-13T02:39:09.499Z,47.82
2023-04-13T02:41:36.390Z,47.84
2023-04-13T02:44:03.408Z,47.88
2023-04-13T02:46:32.654Z,47.72
2023-04-13T02:49:00.117Z,47.85
2023-04-13T02:51:28.430Z,47.79
2023-04-13T02:53:57.758Z,47.86
2023-04-13T02:56:28.664Z,47.96
2023-04-13T02:58:55.602Z,47.67
2023-04-13T03:01:25.406Z,47.41
2023-04-13T03:03:52.379Z,47.52
2023-04-13T03:06:19.355Z,47.59
2023-04-13T03:08:46.692Z,47.69
2023-04-13T03:11:13.647Z,47.64
2023-04-13T03:13:40.572Z,47.42
2023-04-13T03:16:07.788Z,47.49
2023-04-13T03:18:34.836Z,47.42
2023-04-13T03:21:02.865Z,47.45
2023-04-13T03:23:29.786Z,47.36
2023-04-13T03:25:56.746Z,47.48
2023-04-13T03:28:24.209Z,47.52
2023-04-13T03:30:51.415Z,47.41
2023-04-13T03:33:18.338Z,47.30
2023-04-13T03:35:45.308Z,47.25
2023-04-13T03:38:12.379Z,47.48
2023-04-13T03:40:39.428Z,47.68
2023-04-13T03:43:06.383Z,47.38
2023-04-13T03:45:33.668Z,47.44
2023-04-13T03:48:00.732Z,47.53
2023-04-13T03:50:29.042Z,47.36
2023-04-13T03:52:55.988Z,47.49
2023-04-13T03:55:25.277Z,47.39
2023-04-13T03:57:52.260Z,47.31
2023-04-13T04:00:22.638Z,47.49
2023-04-13T04:02:49.786Z,47.35
2023-04-13T04:05:17.398Z,47.08
2023-04-13T04:07:44.412Z,47.36
2023-04-13T04:10:11.506Z,47.27
2023-04-13T04:12:38.462Z,47.25
2023-04-13T04:15:05.870Z,47.38
2023-04-13T04:17:33.307Z,47.40
2023-04-13T04:20:00.310Z,47.33
2023-04-13T04:22:30.519Z,47.18
2023-04-13T04:25:00.539Z,47.18
2023-04-13T04:27:27.500Z,47.12
2023-04-13T04:29:59.569Z,47.33
2023-04-13T04:32:26.663Z,47.26
2023-04-13T04:34:53.583Z,47.04
2023-04-13T04:37:23.785Z,47.12
2023-04-13T04:39:53.777Z,47.19
2023-04-13T04:42:21.338Z,47.17
2023-04-13T04:44:50.488Z,47.04
2023-04-13T04:47:17.765Z,46.99
2023-04-13T04:49:44.693Z,47.16
2023-04-13T04:52:12.848Z,47.12
2023-04-13T04:54:40.836Z,47.10
2023-04-13T04:57:10.888Z,47.31
2023-04-13T04:59:37.846Z,47.05
2023-04-13T05:02:05.038Z,47.19
2023-04-13T05:04:32.024Z,47.24
2023-04-13T05:06:59.099Z,47.18
2023-04-13T05:09:26.408Z,47.12
2023-04-13T05:11:53.417Z,47.33
2023-04-13T05:14:20.399Z,46.95
2023-04-13T05:16:47.340Z,47.23
2023-04-13T05:19:14.455Z,46.90
2023-04-13T05:21:41.399Z,46.94
2023-04-13T05:24:11.812Z,47.26
2023-04-13T05:26:38.872Z,46.88
2023-04-13T05:29:07.192Z,47.07
2023-04-13T05:31:34.287Z,46.83
2023-04-13T05:34:02.147Z,47.04
2023-04-13T05:36:29.571Z,47.27
2023-04-13T05:38:58.260Z,47.20
2023-04-13T05:41:25.481Z,47.13
2023-04-13T05:43:52.381Z,47.18
2023-04-13T05:46:19.385Z,46.90
2023-04-13T05:48:46.303Z,47.02
2023-04-13T05:51:13.297Z,47.07
2023-04-13T05:53:40.198Z,47.07
2023-04-13T05:56:08.371Z,47.14
2023-04-13T05:58:35.350Z,46.86
2023-04-13T06:01:02.408Z,47.24
2023-04-13T06:03:30.250Z,47.13
2023-04-13T06:05:57.366Z,47.07
2023-04-13T06:08:34.208Z,46.93
2023-04-13T06:11:01.536Z,47.13
2023-04-13T06:13:28.457Z,47.22
2023-04-13T06:15:58.568Z,47.12
2023-04-13T06:18:27.185Z,47.06
2023-04-13T06:20:54.276Z,46.98
2023-04-13T06:23:22.198Z,46.91
2023-04-13T06:25:49.718Z,46.96
2023-04-13T06:28:17.035Z,47.02
2023-04-13T06:30:44.090Z,47.00
2023-04-13T06:33:11.756Z,47.07
2023-04-13T06:35:38.939Z,46.88
2023-04-13T06:38:05.951Z,46.97
2023-04-13T06:40:33.872Z,47.10
2023-04-13T06:43:00.983Z,47.07
2023-04-13T06:45:28.064Z,47.20
2023-04-13T06:47:55.016Z,47.16
2023-04-13T06:50:22.116Z,47.13
2023-04-13T06:52:49.600Z,46.78
2023-04-13T06:55:17.845Z,47.02
2023-04-13T06:57:45.052Z,47.28
2023-04-13T07:00:26.358Z,47.07
2023-04-13T07:02:56.000Z,46.89
2023-04-13T07:05:23.054Z,47.21
2023-04-13T07:07:50.149Z,47.18
2023-04-13T07:10:17.203Z,47.09
2023-04-13T07:12:44.252Z,46.98
2023-04-13T07:15:11.383Z,46.82
2023-04-13T07:17:41.415Z,46.92
2023-04-13T07:20:09.868Z,46.76
2023-04-13T07:22:37.071Z,46.71
2023-04-13T07:25:04.548Z,46.81
2023-04-13T07:27:33.542Z,46.66
2023-04-13T07:30:01.616Z,46.84
2023-04-13T07:32:31.506Z,46.59
2023-04-13T07:35:02.264Z,47.02
2023-04-13T07:37:30.124Z,46.80
2023-04-13T07:39:57.243Z,46.76
2023-04-13T07:42:25.189Z,46.63
2023-04-13T07:44:55.428Z,46.91
2023-04-13T07:47:22.505Z,46.74
2023-04-13T07:49:52.748Z,46.78
2023-04-13T07:52:20.498Z,46.76
2023-04-13T07:54:47.591Z,46.53
2023-04-13T07:57:14.643Z,46.75
2023-04-13T07:59:41.696Z,46.69
2023-04-13T08:02:08.762Z,46.63
2023-04-13T08:04:36.537Z,46.56
2023-04-13T08:07:04.444Z,46.74
2023-04-13T08:09:33.191Z,46.59
2023-04-13T08:12:00.245Z,46.52
2023-04-13T08:14:27.309Z,46.73
2023-04-13T08:16:54.560Z,46.72
2023-04-13T08:19:24.610Z,46.44
2023-04-13T08:21:52.908Z,46.54
2023-04-13T08:24:21.251Z,46.45
2023-04-13T08:26:48.313Z,46.44
2023-04-13T08:29:17.560Z,46.63
2023-04-13T08:31:44.596Z,46.44
2023-04-13T08:34:12.513Z,46.28
2023-04-13T08:36:41.732Z,46.36
2023-04-13T08:39:10.663Z,46.40
2023-04-13T08:41:41.080Z,46.33
2023-04-13T08:44:09.124Z,46.34
2023-04-13T08:46:37.203Z,46.39
2023-04-13T08:49:04.733Z,46.26
2023-04-13T08:51:33.041Z,46.46
2023-04-13T08:54:00.371Z,46.43
2023-04-13T08:56:42.152Z,46.26
2023-04-13T08:59:13.468Z,46.13
2023-04-13T09:01:41.029Z,46.49
2023-04-13T09:04:09.287Z,46.15
2023-04-13T09:06:40.286Z,46.19
2023-04-13T09:09:09.332Z,46.29
2023-04-13T09:11:36.759Z,46.18
2023-04-13T09:14:03.756Z,46.09
2023-04-13T09:16:31.380Z,46.37
2023-04-13T09:18:58.934Z,46.01
2023-04-13T09:21:37.017Z,46.29
2023-04-13T09:24:04.208Z,46.31
2023-04-13T09:26:39.917Z,46.07
2023-04-13T09:29:09.615Z,46.21
2023-04-13T09:31:38.930Z,45.96
2023-04-13T09:34:06.438Z,45.99
2023-04-13T09:36:33.840Z,45.96
2023-04-13T09:39:00.962Z,45.92
2023-04-13T09:41:30.679Z,45.63
2023-04-13T09:43:58.185Z,45.86
2023-04-13T09:46:25.283Z,45.40
2023-04-13T09:49:01.862Z,45.41
2023-04-13T09:51:37.712Z,45.49
2023-04-13T09:54:06.304Z,45.36
2023-04-13T09:56:42.389Z,45.40
2023-04-13T09:59:10.097Z,45.15
2023-04-13T10:01:37.862Z,45.43
2023-04-13T10:04:06.524Z,45.15
2023-04-13T10:06:38.965Z,45.25
2023-04-13T10:09:06.402Z,44.87
2023-04-13T10:11:40.228Z,45.05
2023-04-13T10:14:12.544Z,44.81
2023-04-13T10:16:40.797Z,44.79
2023-04-13T10:19:12.897Z,44.56
2023-04-13T10:21:41.515Z,44.76
2023-04-13T10:24:11.728Z,44.48
2023-04-13T10:26:40.025Z,44.68
2023-04-13T10:29:08.366Z,44.51
2023-04-13T10:31:38.387Z,44.39
2023-04-13T10:34:08.275Z,44.18
2023-04-13T10:36:42.117Z,44.14
2023-04-13T10:39:10.947Z,44.01
2023-04-13T10:41:38.461Z,43.80
2023-04-13T10:44:06.826Z,43.82
2023-04-13T10:46:35.475Z,43.75
2023-04-13T10:49:03.451Z,43.54
2023-04-13T10:51:39.697Z,43.45
2023-04-13T10:54:07.278Z,43.41
2023-04-13T10:56:34.510Z,43.37
2023-04-13T10:59:01.630Z,43.22
2023-04-13T11:01:30.920Z,43.18
2023-04-13T11:04:05.111Z,43.26
2023-04-13T11:06:38.582Z,43.25
2023-04-13T11:09:14.309Z,43.11
2023-04-13T11:11:42.357Z,43.33
2023-04-13T11:14:09.414Z,43.43
2023-04-13T11:16:47.298Z,42.99
2023-04-13T11:19:15.561Z,43.15
2023-04-13T11:21:45.297Z,43.02
2023-04-13T11:24:12.426Z,43.07
2023-04-13T11:26:39.487Z,43.22
2023-04-13T11:29:06.570Z,42.79
2023-04-13T11:31:37.910Z,42.71
2023-04-13T11:34:06.322Z,42.90
2023-04-13T11:36:33.992Z,42.94
2023-04-13T11:39:02.326Z,42.52
2023-04-13T11:41:30.498Z,42.62
2023-04-13T11:43:57.703Z,42.78
2023-04-13T11:46:26.118Z,42.54
2023-04-13T11:48:53.394Z,42.54
2023-04-13T11:51:21.512Z,42.63
2023-04-13T11:53:49.678Z,42.65
2023-04-13T11:56:19.852Z,42.40
2023-04-13T11:58:50.199Z,42.54
2023-04-13T12:01:25.125Z,42.30
2023-04-13T12:04:15.088Z,42.53
2023-04-13T12:06:46.206Z,42.46
2023-04-13T12:09:16.835Z,42.34
2023-04-13T12:11:50.092Z,42.42
2023-04-13T12:19:28.633Z,42.02
2023-04-13T12:21:57.990Z,42.18
2023-04-13T12:24:37.909Z,41.96
2023-04-13T12:29:37.635Z,41.95
2023-04-13T12:32:09.331Z,42.35
2023-04-13T12:34:37.020Z,42.22
2023-04-13T12:37:04.811Z,42.14
2023-04-13T12:39:32.287Z,42.40
2023-04-13T12:41:59.286Z,42.39
2023-04-13T12:44:26.402Z,42.37
2023-04-13T12:46:53.433Z,42.36
2023-04-13T12:49:20.684Z,42.17
2023-04-13T12:51:47.730Z,42.38
2023-04-13T12:54:25.343Z,42.39
2023-04-13T12:56:52.647Z,42.20
2023-04-13T12:59:22.515Z,42.28
2023-04-13T13:01:49.960Z,42.00
2023-04-13T13:04:17.344Z,42.12
2023-04-13T13:06:44.369Z,42.27
2023-04-13T13:09:11.535Z,42.17
2023-04-13T13:11:39.085Z,42.05
2023-04-13T13:14:07.386Z,42.23
2023-04-13T13:16:35.841Z,42.26
2023-04-13T13:19:05.366Z,42.34
2023-04-13T13:21:32.880Z,42.43
2023-04-13T13:23:59.842Z,42.42
2023-04-13T13:26:30.616Z,42.32
2023-04-13T13:29:07.565Z,42.40
2023-04-13T13:31:34.635Z,42.12
2023-04-13T13:34:01.860Z,42.41
2023-04-13T13:36:31.107Z,42.47
2023-04-13T13:39:00.266Z,42.26
2023-04-13T13:41:27.740Z,42.12
2023-04-13T13:43:54.661Z,42.13
2023-04-13T13:46:21.857Z,41.95
2023-04-13T13:48:48.918Z,42.04
2023-04-13T13:51:16.352Z,41.88
2023-04-13T13:53:43.412Z,41.88
2023-04-13T13:56:10.437Z,41.81
2023-04-13T13:58:37.470Z,41.66
2023-04-13T14:01:08.375Z,41.84
2023-04-13T14:03:35.580Z,41.96
2023-04-13T14:06:03.040Z,41.88
2023-04-13T14:08:30.016Z,41.67
2023-04-13T14:10:57.405Z,41.52
2023-04-13T14:13:24.417Z,41.78
2023-04-13T14:15:51.729Z,41.54
2023-04-13T14:18:18.864Z,41.54
2023-04-13T14:20:45.924Z,41.57
2023-04-13T14:23:13.127Z,41.45
2023-04-13T14:25:41.648Z,41.42
2023-04-13T14:28:09.639Z,41.42
2023-04-13T14:30:36.688Z,41.31
2023-04-13T14:33:04.504Z,41.57
2023-04-13T14:35:31.956Z,41.52
2023-04-13T14:38:05.468Z,41.61
2023-04-13T14:40:33.124Z,41.45
2023-04-13T14:43:00.188Z,41.80
2023-04-13T14:45:28.217Z,41.46
2023-04-13T14:47:55.227Z,41.36
2023-04-13T14:50:22.733Z,41.53
2023-04-13T14:52:52.847Z,41.47
2023-04-13T14:55:20.201Z,41.54
2023-04-13T14:57:47.515Z,41.62
2023-04-13T15:00:18.407Z,41.66
2023-04-13T15:02:45.672Z,41.64
2023-04-13T15:05:13.208Z,41.73
2023-04-13T15:07:40.746Z,41.54
2023-04-13T15:10:08.935Z,41.76
2023-04-13T15:12:35.962Z,41.37
2023-04-13T15:15:02.994Z,41.29
2023-04-13T15:17:30.248Z,41.62
2023-04-13T15:19:57.238Z,41.56
2023-04-13T15:22:24.305Z,41.42
2023-04-13T15:24:51.360Z,41.63
2023-04-13T15:27:18.348Z,41.44
2023-04-13T15:29:45.298Z,41.85
2023-04-13T15:32:12.239Z,41.49
2023-04-13T15:34:40.805Z,41.76
2023-04-13T15:37:07.677Z,41.60
2023-04-13T15:39:34.571Z,41.53
2023-04-13T15:42:02.604Z,41.67
2023-04-13T15:44:29.618Z,41.54
2023-04-13T15:46:56.535Z,41.28
2023-04-13T15:49:23.626Z,41.67
2023-04-13T15:51:50.499Z,41.51
2023-04-13T15:54:18.223Z,41.51
2023-04-13T15:56:45.170Z,41.43
2023-04-13T15:59:12.145Z,41.39
2023-04-13T16:01:48.882Z,41.25
2023-04-13T16:04:16.350Z,41.34
2023-04-13T16:06:43.496Z,41.62
2023-04-13T16:09:10.398Z,41.64
2023-04-13T16:11:39.113Z,41.68
2023-04-13T16:14:09.633Z,41.64
2023-04-13T16:16:46.152Z,41.63
2023-04-13T16:19:14.084Z,41.89
2023-04-13T16:21:43.797Z,41.91
2023-04-13T16:24:11.109Z,41.95
2023-04-13T16:26:38.310Z,41.62
2023-04-13T16:29:05.637Z,41.89
2023-04-13T16:31:32.759Z,41.66
2023-04-13T16:33:59.774Z,41.67
2023-04-13T16:36:27.682Z,41.63
2023-04-13T16:38:54.733Z,41.62
2023-04-13T16:41:21.710Z,41.37
2023-04-13T16:43:48.724Z,41.55
2023-04-13T16:46:16.661Z,41.46
2023-04-13T16:48:44.291Z,41.48
2023-04-13T16:51:11.305Z,41.34
2023-04-13T16:53:41.013Z,41.60
2023-04-13T16:56:08.050Z,41.64
2023-04-13T16:58:35.026Z,41.55
2023-04-13T17:01:02.055Z,41.68
2023-04-13T17:03:29.885Z,41.67
2023-04-13T17:05:57.167Z,41.43
2023-04-13T17:08:24.403Z,41.77
2023-04-13T17:10:52.953Z,41.62
2023-04-13T17:13:20.000Z,41.68
2023-04-13T17:15:47.011Z,41.75
2023-04-13T17:18:14.348Z,41.70
2023-04-13T17:20:41.488Z,41.88
2023-04-13T17:23:09.034Z,41.97
2023-04-13T17:25:41.414Z,41.91
2023-04-13T17:28:09.434Z,41.99
2023-04-13T17:30:37.030Z,41.84
2023-04-13T17:33:05.359Z,41.84
2023-04-13T17:35:32.376Z,41.72
2023-04-13T17:37:59.234Z,41.77
2023-04-13T17:40:26.642Z,42.15
2023-04-13T17:42:53.646Z,41.86
2023-04-13T17:45:23.167Z,42.07
2023-04-13T17:47:50.109Z,42.19
2023-04-13T17:50:17.183Z,41.94
2023-04-13T17:52:44.346Z,41.97
2023-04-13T17:55:11.350Z,41.77
2023-04-13T17:57:38.520Z,42.10
2023-04-13T18:00:05.899Z,41.73
2023-04-13T18:02:33.004Z,41.83
2023-04-13T18:05:00.042Z,41.82
2023-04-13T18:07:27.172Z,42.16
2023-04-13T18:09:54.296Z,42.05
2023-04-13T18:12:21.332Z,42.20
2023-04-13T18:14:48.339Z,42.21
2023-04-13T18:17:15.557Z,42.08
2023-04-13T18:19:43.028Z,41.78
2023-04-13T18:22:10.113Z,42.17
2023-04-13T18:24:37.097Z,42.23
2023-04-13T18:27:04.101Z,42.26
2023-04-13T18:29:31.337Z,42.04
2023-04-13T18:31:58.361Z,42.21
2023-04-13T18:34:25.522Z,42.06
2023-04-13T18:36:52.448Z,41.96
2023-04-13T18:39:19.759Z,42.36
2023-04-13T18:41:47.587Z,42.10
2023-04-13T18:44:14.620Z,42.39
2023-04-13T18:46:41.688Z,42.13
2023-04-13T18:49:11.650Z,42.34
2023-04-13T18:51:38.994Z,42.04
2023-04-13T18:54:06.254Z,42.07
2023-04-13T18:56:33.257Z,42.12
2023-04-13T18:59:00.121Z,42.24
2023-04-13T19:01:27.255Z,42.24
2023-04-13T19:03:54.560Z,42.23
2023-04-13T19:06:21.754Z,42.36
2023-04-13T19:08:48.601Z,42.46
2023-04-13T19:11:17.949Z,42.57
2023-04-13T19:13:46.603Z,42.40
2023-04-13T19:16:14.314Z,42.50
2023-04-13T19:18:41.441Z,42.78
2023-04-13T19:21:08.596Z,42.83
2023-04-13T19:23:36.601Z,42.95
2023-04-13T19:26:05.855Z,43.02
2023-04-13T19:28:32.756Z,42.86
2023-04-13T19:31:00.041Z,42.99
2023-04-13T19:33:29.249Z,42.78
2023-04-13T19:35:56.374Z,43.14
2023-04-13T19:38:23.242Z,42.86
2023-04-13T19:40:50.134Z,43.19
2023-04-13T19:43:21.064Z,43.02
2023-04-13T19:45:48.296Z,43.19
2023-04-13T19:48:15.397Z,43.27
2023-04-13T19:50:42.317Z,43.35
2023-04-13T19:53:09.204Z,43.08
2023-04-13T19:55:36.666Z,43.45
2023-04-13T19:58:03.847Z,43.24
2023-04-13T20:00:30.971Z,43.45
2023-04-13T20:03:03.570Z,43.28
2023-04-13T20:05:30.861Z,43.58
2023-04-13T20:07:58.013Z,43.42
2023-04-13T20:10:25.062Z,43.42
2023-04-13T20:12:51.985Z,43.35
2023-04-13T20:15:19.156Z,43.70
2023-04-13T20:17:48.381Z,43.43
2023-04-13T20:20:18.340Z,43.61
2023-04-13T20:22:46.425Z,43.67
2023-04-13T20:25:13.483Z,43.78
2023-04-13T20:27:42.395Z,43.57
2023-04-13T20:30:10.316Z,43.71
2023-04-13T20:32:37.495Z,43.60
2023-04-13T20:35:06.540Z,43.82
2023-04-13T20:37:33.547Z,43.88
2023-04-13T20:40:00.999Z,43.61
2023-04-13T20:42:27.996Z,43.80
2023-04-13T20:44:58.049Z,43.77
2023-04-13T20:47:25.843Z,44.02
2023-04-13T20:49:54.861Z,44.03
2023-04-13T20:52:23.003Z,43.77
2023-04-13T20:54:51.071Z,44.13
2023-04-13T20:57:19.461Z,44.03
2023-04-13T20:59:46.598Z,43.83
2023-04-13T21:02:15.123Z,44.32
2023-04-13T21:04:42.466Z,44.14
2023-04-13T21:07:11.392Z,44.30
2023-04-13T21:09:38.595Z,43.98
2023-04-13T21:12:05.514Z,44.01
2023-04-13T21:14:32.598Z,44.02
2023-04-13T21:16:59.486Z,44.19
2023-04-13T21:19:26.377Z,44.39
2023-04-13T21:21:53.996Z,44.21
2023-04-13T21:24:20.892Z,44.46
2023-04-13T21:26:47.816Z,44.20
2023-04-13T21:29:16.653Z,44.54
2023-04-13T21:31:43.625Z,44.55
2023-04-13T21:34:10.488Z,44.17
2023-04-13T21:39:07.151Z,44.30
2023-04-13T21:41:34.007Z,44.24
2023-04-13T21:44:01.420Z,44.19
2023-04-13T21:46:28.643Z,44.21
2023-04-13T21:48:55.804Z,44.56
2023-04-13T21:51:22.753Z,44.46
2023-04-13T21:53:52.669Z,44.32
2023-04-13T21:56:19.530Z,44.43
2023-04-13T21:58:46.398Z,44.23
2023-04-13T22:01:13.907Z,44.63
2023-04-13T22:03:42.013Z,44.44
2023-04-13T22:06:10.307Z,44.65
2023-04-13T22:08:37.660Z,44.41
2023-04-13T22:11:04.797Z,44.65
2023-04-13T22:13:31.733Z,44.62
2023-04-13T22:16:00.989Z,44.48
2023-04-13T22:18:28.091Z,44.55
2023-04-13T22:20:54.901Z,44.51
2023-04-13T22:23:21.728Z,44.47
2023-04-13T22:25:53.780Z,44.57
2023-04-13T22:28:21.232Z,44.53
2023-04-13T22:30:48.152Z,44.49
2023-04-13T22:33:15.565Z,44.40
2023-04-13T22:35:42.443Z,44.56
2023-04-13T22:38:09.338Z,44.89
2023-04-13T22:40:38.089Z,44.48
2023-04-13T22:43:05.548Z,44.61
2023-04-13T22:45:32.391Z,44.53
2023-04-13T22:47:59.280Z,44.47
2023-04-13T22:50:26.097Z,44.62
2023-04-13T22:52:54.447Z,44.60
2023-04-13T22:55:21.630Z,44.82
2023-04-13T22:57:50.918Z,44.48
2023-04-13T23:00:20.898Z,44.55
2023-04-13T23:02:50.781Z,44.75
2023-04-13T23:05:17.881Z,44.83
2023-04-13T23:07:44.728Z,44.45
2023-04-13T23:10:11.588Z,44.60
2023-04-13T23:12:38.378Z,44.71
2023-04-13T23:15:05.601Z,44.63
2023-04-13T23:17:32.522Z,44.59
2023-04-13T23:19:59.438Z,44.63
2023-04-13T23:22:26.244Z,44.58
2023-04-13T23:24:55.423Z,44.71
2023-04-13T23:27:22.208Z,44.71
2023-04-13T23:29:49.757Z,44.52
2023-04-13T23:32:16.717Z,44.68
2023-04-13T23:34:43.589Z,44.90
2023-04-13T23:37:10.389Z,44.61
2023-04-13T23:39:37.906Z,44.62
2023-04-13T23:42:04.912Z,44.77
2023-04-13T23:44:31.735Z,44.58
2023-04-13T23:46:58.608Z,44.55
2023-04-13T23:49:25.424Z,44.57
2023-04-13T23:51:52.188Z,44.78
2023-04-13T23:54:19.143Z,44.80
2023-04-13T23:56:46.054Z,44.48
2023-04-13T23:59:16.302Z,44.81
